sensor_id;sensor_type;location;lat;lon;timestamp;temperature;humidity
7972;DHT22;4031;49.758;6.120;2022-11-20T00:01:24;6.90;99.90
7972;DHT22;4031;49.758;6.120;2022-11-20T00:03:51;7.10;99.90
7972;DHT22;4031;49.758;6.120;2022-11-20T00:06:19;7.00;99.90
7972;DHT22;4031;49.758;6.120;2022-11-20T00:08:45;7.00;99.90
7972;DHT22;4031;49.758;6.120;2022-11-20T00:11:13;7.00;99.90
7972;DHT22;4031;49.758;6.120;2022-11-20T00:13:44;7.00;99.90
7972;DHT22;4031;49.758;6.120;2022-11-20T00:16:12;7.00;99.90
7972;DHT22;4031;49.758;6.120;2022-11-20T00:18:39;7.00;99.90
7972;DHT22;4031;49.758;6.120;2022-11-20T00:21:07;7.00;99.90
7972;DHT22;4031;49.758;6.120;2022-11-20T00:23:36;7.00;99.90
7972;DHT22;4031;49.758;6.120;2022-11-20T00:26:06;6.90;99.90
7972;DHT22;4031;49.758;6.120;2022-11-20T00:28:34;6.90;99.90
7972;DHT22;4031;49.758;6.120;2022-11-20T00:31:04;6.90;99.90
7972;DHT22;4031;49.758;6.120;2022-11-20T00:33:34;7.00;99.90
7972;DHT22;4031;49.758;6.120;2022-11-20T00:36:02;7.00;99.90
7972;DHT22;4031;49.758;6.120;2022-11-20T00:38:29;7.00;99.90
7972;DHT22;4031;49.758;6.120;2022-11-20T00:40:57;7.00;99.90
7972;DHT22;4031;49.758;6.120;2022-11-20T00:43:24;6.90;99.90
7972;DHT22;4031;49.758;6.120;2022-11-20T00:45:51;6.90;99.90
7972;DHT22;4031;49.758;6.120;2022-11-20T00:48:31;7.00;99.90
7972;DHT22;4031;49.758;6.120;2022-11-20T00:50:57;6.90;99.90
7972;DHT22;4031;49.758;6.120;2022-11-20T00:53:23;6.90;99.90
7972;DHT22;4031;49.758;6.120;2022-11-20T00:58:19;6.80;99.90
7972;DHT22;4031;49.758;6.120;2022-11-20T01:00:45;6.80;99.90
7972;DHT22;4031;49.758;6.120;2022-11-20T01:03:11;6.80;99.90
7972;DHT22;4031;49.758;6.120;2022-11-20T01:05:36;6.80;99.90
7972;DHT22;4031;49.758;6.120;2022-11-20T01:08:02;6.80;99.90
7972;DHT22;4031;49.758;6.120;2022-11-20T01:10:28;6.80;99.90
7972;DHT22;4031;49.758;6.120;2022-11-20T01:12:54;6.80;99.90
7972;DHT22;4031;49.758;6.120;2022-11-20T01:15:40;6.80;99.90
7972;DHT22;4031;49.758;6.120;2022-11-20T01:18:06;6.80;99.90
7972;DHT22;4031;49.758;6.120;2022-11-20T01:20:35;6.80;99.90
7972;DHT22;4031;49.758;6.120;2022-11-20T01:23:02;6.80;99.90
7972;DHT22;4031;49.758;6.120;2022-11-20T01:25:28;6.80;99.90
7972;DHT22;4031;49.758;6.120;2022-11-20T01:27:54;6.80;99.90
7972;DHT22;4031;49.758;6.120;2022-11-20T01:30:20;6.80;99.90
7972;DHT22;4031;49.758;6.120;2022-11-20T01:32:46;6.80;99.90
7972;DHT22;4031;49.758;6.120;2022-11-20T01:35:11;6.80;99.90
7972;DHT22;4031;49.758;6.120;2022-11-20T01:37:37;6.80;99.90
7972;DHT22;4031;49.758;6.120;2022-11-20T01:40:03;6.80;99.90
7972;DHT22;4031;49.758;6.120;2022-11-20T01:42:29;6.80;99.90
7972;DHT22;4031;49.758;6.120;2022-11-20T01:48:48;6.80;99.90
7972;DHT22;4031;49.758;6.120;2022-11-20T01:51:35;6.80;99.90
7972;DHT22;4031;49.758;6.120;2022-11-20T01:54:20;6.80;99.90
7972;DHT22;4031;49.758;6.120;2022-11-20T01:56:51;6.80;99.90
7972;DHT22;4031;49.758;6.120;2022-11-20T01:59:21;6.80;99.90
7972;DHT22;4031;49.758;6.120;2022-11-20T02:01:48;6.80;99.90
7972;DHT22;4031;49.758;6.120;2022-11-20T02:04:15;6.80;99.90
7972;DHT22;4031;49.758;6.120;2022-11-20T02:06:42;6.80;99.90
7972;DHT22;4031;49.758;6.120;2022-11-20T02:09:10;6.80;99.90
7972;DHT22;4031;49.758;6.120;2022-11-20T02:11:37;6.80;99.90
7972;DHT22;4031;49.758;6.120;2022-11-20T02:14:03;6.80;99.90
7972;DHT22;4031;49.758;6.120;2022-11-20T02:16:37;6.80;99.90
7972;DHT22;4031;49.758;6.120;2022-11-20T02:19:07;6.80;99.90
7972;DHT22;4031;49.758;6.120;2022-11-20T02:21:46;6.80;99.90
7972;DHT22;4031;49.758;6.120;2022-11-20T02:24:16;6.80;99.90
7972;DHT22;4031;49.758;6.120;2022-11-20T02:27:00;6.80;99.90
7972;DHT22;4031;49.758;6.120;2022-11-20T02:29:35;6.80;99.90
7972;DHT22;4031;49.758;6.120;2022-11-20T02:32:05;6.70;99.90
7972;DHT22;4031;49.758;6.120;2022-11-20T02:34:32;6.70;99.90
7972;DHT22;4031;49.758;6.120;2022-11-20T02:36:59;6.70;99.90
7972;DHT22;4031;49.758;6.120;2022-11-20T02:39:27;6.70;99.90
7972;DHT22;4031;49.758;6.120;2022-11-20T02:41:54;6.70;99.90
7972;DHT22;4031;49.758;6.120;2022-11-20T02:44:21;6.70;99.90
7972;DHT22;4031;49.758;6.120;2022-11-20T02:46:47;6.70;99.90
7972;DHT22;4031;49.758;6.120;2022-11-20T02:49:12;6.70;99.90
7972;DHT22;4031;49.758;6.120;2022-11-20T02:51:38;6.70;99.90
7972;DHT22;4031;49.758;6.120;2022-11-20T02:54:04;6.70;99.90
7972;DHT22;4031;49.758;6.120;2022-11-20T02:56:30;6.70;99.90
7972;DHT22;4031;49.758;6.120;2022-11-20T02:58:56;6.70;99.90
7972;DHT22;4031;49.758;6.120;2022-11-20T03:01:22;6.70;99.90
7972;DHT22;4031;49.758;6.120;2022-11-20T03:03:48;6.70;99.90
7972;DHT22;4031;49.758;6.120;2022-11-20T03:06:15;6.70;99.90
7972;DHT22;4031;49.758;6.120;2022-11-20T03:08:42;6.60;99.90
7972;DHT22;4031;49.758;6.120;2022-11-20T03:11:08;6.60;99.90
7972;DHT22;4031;49.758;6.120;2022-11-20T03:13:35;6.60;99.90
7972;DHT22;4031;49.758;6.120;2022-11-20T03:16:18;6.50;99.90
7972;DHT22;4031;49.758;6.120;2022-11-20T03:18:45;6.50;99.90
7972;DHT22;4031;49.758;6.120;2022-11-20T03:21:12;6.50;99.90
7972;DHT22;4031;49.758;6.120;2022-11-20T03:23:39;6.40;99.90
7972;DHT22;4031;49.758;6.120;2022-11-20T03:26:20;6.40;99.90
7972;DHT22;4031;49.758;6.120;2022-11-20T03:28:50;6.40;99.90
7972;DHT22;4031;49.758;6.120;2022-11-20T03:31:20;6.40;99.90
7972;DHT22;4031;49.758;6.120;2022-11-20T03:33:47;6.50;99.90
7972;DHT22;4031;49.758;6.120;2022-11-20T03:36:15;6.40;99.90
7972;DHT22;4031;49.758;6.120;2022-11-20T03:38:42;6.50;99.90
7972;DHT22;4031;49.758;6.120;2022-11-20T03:41:13;6.50;99.90
7972;DHT22;4031;49.758;6.120;2022-11-20T03:43:41;6.50;99.90
7972;DHT22;4031;49.758;6.120;2022-11-20T03:46:07;6.50;99.90
7972;DHT22;4031;49.758;6.120;2022-11-20T03:48:33;6.50;99.90
7972;DHT22;4031;49.758;6.120;2022-11-20T03:51:15;6.50;99.90
7972;DHT22;4031;49.758;6.120;2022-11-20T03:53:46;6.50;99.90
7972;DHT22;4031;49.758;6.120;2022-11-20T03:56:15;6.60;99.90
7972;DHT22;4031;49.758;6.120;2022-11-20T03:58:42;6.60;99.90
7972;DHT22;4031;49.758;6.120;2022-11-20T04:01:20;6.60;99.90
7972;DHT22;4031;49.758;6.120;2022-11-20T04:03:48;6.60;99.90
7972;DHT22;4031;49.758;6.120;2022-11-20T04:06:19;6.60;99.90
7972;DHT22;4031;49.758;6.120;2022-11-20T04:08:46;6.60;99.90
7972;DHT22;4031;49.758;6.120;2022-11-20T04:11:15;6.60;99.90
7972;DHT22;4031;49.758;6.120;2022-11-20T04:13:45;6.60;99.90
7972;DHT22;4031;49.758;6.120;2022-11-20T04:16:13;6.60;99.90
7972;DHT22;4031;49.758;6.120;2022-11-20T04:18:39;6.50;99.90
7972;DHT22;4031;49.758;6.120;2022-11-20T04:21:05;6.60;99.90
7972;DHT22;4031;49.758;6.120;2022-11-20T04:23:32;6.60;99.90
7972;DHT22;4031;49.758;6.120;2022-11-20T04:26:03;6.60;99.90
7972;DHT22;4031;49.758;6.120;2022-11-20T04:28:33;6.50;99.90
7972;DHT22;4031;49.758;6.120;2022-11-20T04:31:25;6.50;99.90
7972;DHT22;4031;49.758;6.120;2022-11-20T04:33:53;6.50;99.90
7972;DHT22;4031;49.758;6.120;2022-11-20T04:36:24;6.40;99.90
7972;DHT22;4031;49.758;6.120;2022-11-20T04:38:56;6.40;99.90
7972;DHT22;4031;49.758;6.120;2022-11-20T04:41:28;6.30;99.90
7972;DHT22;4031;49.758;6.120;2022-11-20T04:43:58;6.30;99.90
7972;DHT22;4031;49.758;6.120;2022-11-20T04:46:28;6.30;99.90
7972;DHT22;4031;49.758;6.120;2022-11-20T04:48:56;6.30;99.90
7972;DHT22;4031;49.758;6.120;2022-11-20T04:51:22;6.30;99.90
7972;DHT22;4031;49.758;6.120;2022-11-20T04:53:48;6.30;99.90
7972;DHT22;4031;49.758;6.120;2022-11-20T04:56:13;6.20;99.90
7972;DHT22;4031;49.758;6.120;2022-11-20T04:58:39;6.20;99.90
7972;DHT22;4031;49.758;6.120;2022-11-20T05:01:11;6.20;99.90
7972;DHT22;4031;49.758;6.120;2022-11-20T05:03:39;6.10;99.90
7972;DHT22;4031;49.758;6.120;2022-11-20T05:06:06;6.10;99.90
7972;DHT22;4031;49.758;6.120;2022-11-20T05:08:33;6.20;99.90
7972;DHT22;4031;49.758;6.120;2022-11-20T05:11:10;6.20;99.90
7972;DHT22;4031;49.758;6.120;2022-11-20T05:13:38;6.20;99.90
7972;DHT22;4031;49.758;6.120;2022-11-20T05:16:09;6.30;99.90
7972;DHT22;4031;49.758;6.120;2022-11-20T05:18:40;6.30;99.90
7972;DHT22;4031;49.758;6.120;2022-11-20T05:21:07;6.30;99.90
7972;DHT22;4031;49.758;6.120;2022-11-20T05:23:34;6.30;99.90
7972;DHT22;4031;49.758;6.120;2022-11-20T05:26:01;6.40;99.90
7972;DHT22;4031;49.758;6.120;2022-11-20T05:28:28;6.40;99.90
7972;DHT22;4031;49.758;6.120;2022-11-20T05:30:55;6.40;99.90
7972;DHT22;4031;49.758;6.120;2022-11-20T05:33:21;6.40;99.90
7972;DHT22;4031;49.758;6.120;2022-11-20T05:35:47;6.40;99.90
7972;DHT22;4031;49.758;6.120;2022-11-20T05:38:14;6.40;99.90
7972;DHT22;4031;49.758;6.120;2022-11-20T05:40:40;6.50;99.90
7972;DHT22;4031;49.758;6.120;2022-11-20T05:43:05;6.50;99.90
7972;DHT22;4031;49.758;6.120;2022-11-20T05:45:31;6.50;99.90
7972;DHT22;4031;49.758;6.120;2022-11-20T05:47:58;6.50;99.90
7972;DHT22;4031;49.758;6.120;2022-11-20T05:50:28;6.50;99.90
7972;DHT22;4031;49.758;6.120;2022-11-20T05:52:53;6.40;99.90
7972;DHT22;4031;49.758;6.120;2022-11-20T05:55:19;6.50;99.90
7972;DHT22;4031;49.758;6.120;2022-11-20T05:57:45;6.40;99.90
7972;DHT22;4031;49.758;6.120;2022-11-20T06:00:11;6.50;99.90
7972;DHT22;4031;49.758;6.120;2022-11-20T06:02:37;6.50;99.90
7972;DHT22;4031;49.758;6.120;2022-11-20T06:05:03;6.50;99.90
7972;DHT22;4031;49.758;6.120;2022-11-20T06:07:29;6.50;99.90
7972;DHT22;4031;49.758;6.120;2022-11-20T06:09:54;6.50;99.90
7972;DHT22;4031;49.758;6.120;2022-11-20T06:12:20;6.50;99.90
7972;DHT22;4031;49.758;6.120;2022-11-20T06:14:46;6.50;99.90
7972;DHT22;4031;49.758;6.120;2022-11-20T06:17:11;6.50;99.90
7972;DHT22;4031;49.758;6.120;2022-11-20T06:19:37;6.50;99.90
7972;DHT22;4031;49.758;6.120;2022-11-20T06:22:03;6.50;99.90
7972;DHT22;4031;49.758;6.120;2022-11-20T06:24:28;6.50;99.90
7972;DHT22;4031;49.758;6.120;2022-11-20T06:26:54;6.50;99.90
7972;DHT22;4031;49.758;6.120;2022-11-20T06:29:20;6.50;99.90
7972;DHT22;4031;49.758;6.120;2022-11-20T06:31:46;6.50;99.90
7972;DHT22;4031;49.758;6.120;2022-11-20T06:34:11;6.50;99.90
7972;DHT22;4031;49.758;6.120;2022-11-20T06:36:37;6.50;99.90
7972;DHT22;4031;49.758;6.120;2022-11-20T06:39:03;6.60;99.90
7972;DHT22;4031;49.758;6.120;2022-11-20T06:41:29;6.50;99.90
7972;DHT22;4031;49.758;6.120;2022-11-20T06:43:55;6.50;99.90
7972;DHT22;4031;49.758;6.120;2022-11-20T06:46:20;6.50;99.90
7972;DHT22;4031;49.758;6.120;2022-11-20T06:48:47;6.50;99.90
7972;DHT22;4031;49.758;6.120;2022-11-20T06:51:13;6.50;99.90
7972;DHT22;4031;49.758;6.120;2022-11-20T06:53:40;6.50;99.90
7972;DHT22;4031;49.758;6.120;2022-11-20T06:56:06;6.50;99.90
7972;DHT22;4031;49.758;6.120;2022-11-20T06:58:33;6.50;99.90
7972;DHT22;4031;49.758;6.120;2022-11-20T07:01:01;6.50;99.90
7972;DHT22;4031;49.758;6.120;2022-11-20T07:03:36;6.50;99.90
7972;DHT22;4031;49.758;6.120;2022-11-20T07:06:03;6.50;99.90
7972;DHT22;4031;49.758;6.120;2022-11-20T07:08:30;6.50;99.90
7972;DHT22;4031;49.758;6.120;2022-11-20T07:11:00;6.50;99.90
7972;DHT22;4031;49.758;6.120;2022-11-20T07:13:27;6.50;99.90
7972;DHT22;4031;49.758;6.120;2022-11-20T07:15:54;6.50;99.90
7972;DHT22;4031;49.758;6.120;2022-11-20T07:18:20;6.50;99.90
7972;DHT22;4031;49.758;6.120;2022-11-20T07:20:46;6.50;99.90
7972;DHT22;4031;49.758;6.120;2022-11-20T07:23:11;6.60;99.90
7972;DHT22;4031;49.758;6.120;2022-11-20T07:25:37;6.60;99.90
7972;DHT22;4031;49.758;6.120;2022-11-20T07:28:03;6.60;99.90
7972;DHT22;4031;49.758;6.120;2022-11-20T07:30:29;6.60;99.90
7972;DHT22;4031;49.758;6.120;2022-11-20T07:32:56;6.60;99.90
7972;DHT22;4031;49.758;6.120;2022-11-20T07:35:23;6.60;99.90
7972;DHT22;4031;49.758;6.120;2022-11-20T07:37:49;6.60;99.90
7972;DHT22;4031;49.758;6.120;2022-11-20T07:40:16;6.70;99.90
7972;DHT22;4031;49.758;6.120;2022-11-20T07:42:53;6.70;99.90
7972;DHT22;4031;49.758;6.120;2022-11-20T07:45:21;6.70;99.90
7972;DHT22;4031;49.758;6.120;2022-11-20T07:47:48;6.80;99.90
7972;DHT22;4031;49.758;6.120;2022-11-20T07:50:14;6.80;99.90
7972;DHT22;4031;49.758;6.120;2022-11-20T07:52:41;6.80;99.90
7972;DHT22;4031;49.758;6.120;2022-11-20T07:55:07;6.80;99.90
7972;DHT22;4031;49.758;6.120;2022-11-20T07:57:34;6.90;99.90
7972;DHT22;4031;49.758;6.120;2022-11-20T08:00:00;6.90;99.90
7972;DHT22;4031;49.758;6.120;2022-11-20T08:02:25;6.90;99.90
7972;DHT22;4031;49.758;6.120;2022-11-20T08:04:52;6.90;99.90
7972;DHT22;4031;49.758;6.120;2022-11-20T08:07:17;6.90;99.90
7972;DHT22;4031;49.758;6.120;2022-11-20T08:09:43;6.90;99.90
7972;DHT22;4031;49.758;6.120;2022-11-20T08:12:20;6.90;99.90
7972;DHT22;4031;49.758;6.120;2022-11-20T08:15:05;6.90;99.90
7972;DHT22;4031;49.758;6.120;2022-11-20T08:17:31;6.90;99.90
7972;DHT22;4031;49.758;6.120;2022-11-20T08:19:57;6.80;99.90
7972;DHT22;4031;49.758;6.120;2022-11-20T08:22:23;6.80;99.90
7972;DHT22;4031;49.758;6.120;2022-11-20T08:24:50;6.80;99.90
7972;DHT22;4031;49.758;6.120;2022-11-20T08:27:15;6.80;99.90
7972;DHT22;4031;49.758;6.120;2022-11-20T08:29:41;6.90;99.90
7972;DHT22;4031;49.758;6.120;2022-11-20T08:32:07;7.00;99.90
7972;DHT22;4031;49.758;6.120;2022-11-20T08:34:33;7.20;99.90
7972;DHT22;4031;49.758;6.120;2022-11-20T08:48:09;7.30;99.90
7972;DHT22;4031;49.758;6.120;2022-11-20T08:50:35;7.20;99.90
7972;DHT22;4031;49.758;6.120;2022-11-20T08:53:04;7.20;99.90
7972;DHT22;4031;49.758;6.120;2022-11-20T08:55:30;7.40;99.90
7972;DHT22;4031;49.758;6.120;2022-11-20T08:57:56;7.20;99.90
7972;DHT22;4031;49.758;6.120;2022-11-20T09:00:22;7.20;99.90
7972;DHT22;4031;49.758;6.120;2022-11-20T09:02:48;7.20;99.90
7972;DHT22;4031;49.758;6.120;2022-11-20T09:05:14;7.20;99.90
7972;DHT22;4031;49.758;6.120;2022-11-20T09:07:40;7.20;99.90
7972;DHT22;4031;49.758;6.120;2022-11-20T09:10:06;7.30;99.90
7972;DHT22;4031;49.758;6.120;2022-11-20T09:12:33;7.40;99.90
7972;DHT22;4031;49.758;6.120;2022-11-20T09:14:58;7.40;99.90
7972;DHT22;4031;49.758;6.120;2022-11-20T09:17:24;7.40;99.90
7972;DHT22;4031;49.758;6.120;2022-11-20T09:19:50;7.40;99.90
7972;DHT22;4031;49.758;6.120;2022-11-20T09:22:16;7.40;99.90
7972;DHT22;4031;49.758;6.120;2022-11-20T09:24:41;7.40;99.90
7972;DHT22;4031;49.758;6.120;2022-11-20T09:27:08;7.40;99.90
7972;DHT22;4031;49.758;6.120;2022-11-20T09:29:33;7.50;99.90
7972;DHT22;4031;49.758;6.120;2022-11-20T09:31:59;7.60;99.90
7972;DHT22;4031;49.758;6.120;2022-11-20T09:34:25;7.80;99.90
7972;DHT22;4031;49.758;6.120;2022-11-20T09:36:51;8.00;99.90
7972;DHT22;4031;49.758;6.120;2022-11-20T09:39:16;8.30;99.90
7972;DHT22;4031;49.758;6.120;2022-11-20T09:42:02;8.50;99.90
7972;DHT22;4031;49.758;6.120;2022-11-20T09:44:46;8.50;99.90
7972;DHT22;4031;49.758;6.120;2022-11-20T09:47:37;8.50;99.90
7972;DHT22;4031;49.758;6.120;2022-11-20T09:50:25;8.40;99.90
7972;DHT22;4031;49.758;6.120;2022-11-20T09:53:04;8.30;99.90
7972;DHT22;4031;49.758;6.120;2022-11-20T09:55:45;8.30;99.90
7972;DHT22;4031;49.758;6.120;2022-11-20T10:00:57;8.40;99.90
7972;DHT22;4031;49.758;6.120;2022-11-20T10:04:10;8.50;99.90
7972;DHT22;4031;49.758;6.120;2022-11-20T10:07:06;8.50;99.90
7972;DHT22;4031;49.758;6.120;2022-11-20T10:09:50;8.50;99.90
7972;DHT22;4031;49.758;6.120;2022-11-20T10:15:38;8.60;99.90
7972;DHT22;4031;49.758;6.120;2022-11-20T10:18:23;8.80;99.90
7972;DHT22;4031;49.758;6.120;2022-11-20T10:32:46;9.30;99.90
7972;DHT22;4031;49.758;6.120;2022-11-20T10:37:42;10.10;99.90
7972;DHT22;4031;49.758;6.120;2022-11-20T10:40:30;10.50;99.90
7972;DHT22;4031;49.758;6.120;2022-11-20T10:43:21;10.80;99.90
7972;DHT22;4031;49.758;6.120;2022-11-20T10:46:05;11.00;99.90
7972;DHT22;4031;49.758;6.120;2022-11-20T10:48:35;11.10;99.90
7972;DHT22;4031;49.758;6.120;2022-11-20T10:51:35;11.20;99.90
7972;DHT22;4031;49.758;6.120;2022-11-20T10:54:24;11.10;99.90
7972;DHT22;4031;49.758;6.120;2022-11-20T10:57:05;11.00;99.90
7972;DHT22;4031;49.758;6.120;2022-11-20T11:08:10;10.70;99.90
7972;DHT22;4031;49.758;6.120;2022-11-20T11:13:27;10.30;99.90
7972;DHT22;4031;49.758;6.120;2022-11-20T11:15:55;10.00;99.90
7972;DHT22;4031;49.758;6.120;2022-11-20T11:18:34;10.00;99.90
7972;DHT22;4031;49.758;6.120;2022-11-20T11:21:02;10.00;99.90
7972;DHT22;4031;49.758;6.120;2022-11-20T11:23:38;9.80;99.90
7972;DHT22;4031;49.758;6.120;2022-11-20T11:26:27;9.60;99.90
7972;DHT22;4031;49.758;6.120;2022-11-20T11:29:03;9.60;99.90
7972;DHT22;4031;49.758;6.120;2022-11-20T11:31:34;9.60;99.90
7972;DHT22;4031;49.758;6.120;2022-11-20T11:34:10;9.50;99.90
7972;DHT22;4031;49.758;6.120;2022-11-20T11:36:37;9.50;99.90
7972;DHT22;4031;49.758;6.120;2022-11-20T11:39:08;9.20;99.90
7972;DHT22;4031;49.758;6.120;2022-11-20T11:41:37;9.10;99.90
7972;DHT22;4031;49.758;6.120;2022-11-20T11:44:19;9.10;99.90
7972;DHT22;4031;49.758;6.120;2022-11-20T11:47:10;9.00;99.90
7972;DHT22;4031;49.758;6.120;2022-11-20T11:49:37;9.10;99.90
7972;DHT22;4031;49.758;6.120;2022-11-20T11:52:15;9.20;99.90
7972;DHT22;4031;49.758;6.120;2022-11-20T11:54:53;9.20;99.90
7972;DHT22;4031;49.758;6.120;2022-11-20T12:00:13;8.80;99.90
7972;DHT22;4031;49.758;6.120;2022-11-20T12:11:10;8.70;99.90
7972;DHT22;4031;49.758;6.120;2022-11-20T12:13:47;8.90;99.90
7972;DHT22;4031;49.758;6.120;2022-11-20T12:16:18;9.00;99.90
7972;DHT22;4031;49.758;6.120;2022-11-20T12:18:49;8.90;99.90
7972;DHT22;4031;49.758;6.120;2022-11-20T12:30:05;8.60;99.90
7972;DHT22;4031;49.758;6.120;2022-11-20T12:46:01;8.40;99.90
7972;DHT22;4031;49.758;6.120;2022-11-20T12:51:16;8.50;99.90
7972;DHT22;4031;49.758;6.120;2022-11-20T12:56:53;8.50;99.90
7972;DHT22;4031;49.758;6.120;2022-11-20T13:05:27;8.50;99.90
7972;DHT22;4031;49.758;6.120;2022-11-20T13:08:00;8.50;99.90
7972;DHT22;4031;49.758;6.120;2022-11-20T13:10:46;8.60;99.90
7972;DHT22;4031;49.758;6.120;2022-11-20T13:15:56;8.50;99.90
7972;DHT22;4031;49.758;6.120;2022-11-20T13:18:26;8.30;99.90
7972;DHT22;4031;49.758;6.120;2022-11-20T13:20:51;8.20;99.90
7972;DHT22;4031;49.758;6.120;2022-11-20T13:23:27;8.20;99.90
7972;DHT22;4031;49.758;6.120;2022-11-20T13:26:20;8.20;99.90
7972;DHT22;4031;49.758;6.120;2022-11-20T13:29:00;8.20;99.90
7972;DHT22;4031;49.758;6.120;2022-11-20T13:31:34;8.20;99.90
7972;DHT22;4031;49.758;6.120;2022-11-20T13:34:04;8.10;99.90
7972;DHT22;4031;49.758;6.120;2022-11-20T13:36:31;8.00;99.90
7972;DHT22;4031;49.758;6.120;2022-11-20T13:38:58;8.00;99.90
7972;DHT22;4031;49.758;6.120;2022-11-20T13:41:34;7.90;99.90
7972;DHT22;4031;49.758;6.120;2022-11-20T13:44:13;7.80;99.90
7972;DHT22;4031;49.758;6.120;2022-11-20T13:46:59;7.80;99.90
7972;DHT22;4031;49.758;6.120;2022-11-20T13:49:39;7.80;99.90
7972;DHT22;4031;49.758;6.120;2022-11-20T13:55:17;7.80;99.90
7972;DHT22;4031;49.758;6.120;2022-11-20T14:01:20;7.80;99.90
7972;DHT22;4031;49.758;6.120;2022-11-20T14:03:48;7.80;99.90
7972;DHT22;4031;49.758;6.120;2022-11-20T14:06:31;7.80;99.90
7972;DHT22;4031;49.758;6.120;2022-11-20T14:08:58;7.70;99.90
7972;DHT22;4031;49.758;6.120;2022-11-20T14:11:29;7.60;99.90
7972;DHT22;4031;49.758;6.120;2022-11-20T14:16:38;7.40;99.90
7972;DHT22;4031;49.758;6.120;2022-11-20T14:21:46;7.20;99.90
7972;DHT22;4031;49.758;6.120;2022-11-20T14:24:14;7.10;99.90
7972;DHT22;4031;49.758;6.120;2022-11-20T14:26:46;7.00;99.90
7972;DHT22;4031;49.758;6.120;2022-11-20T14:29:15;7.00;99.90
7972;DHT22;4031;49.758;6.120;2022-11-20T14:31:47;7.00;99.90
7972;DHT22;4031;49.758;6.120;2022-11-20T14:34:19;7.00;99.90
7972;DHT22;4031;49.758;6.120;2022-11-20T14:36:46;7.00;99.90
7972;DHT22;4031;49.758;6.120;2022-11-20T14:39:20;7.00;99.90
7972;DHT22;4031;49.758;6.120;2022-11-20T14:41:53;7.10;99.90
7972;DHT22;4031;49.758;6.120;2022-11-20T14:44:29;7.00;99.90
7972;DHT22;4031;49.758;6.120;2022-11-20T14:46:59;7.00;99.90
7972;DHT22;4031;49.758;6.120;2022-11-20T14:49:26;6.90;99.90
7972;DHT22;4031;49.758;6.120;2022-11-20T14:52:17;6.80;99.90
7972;DHT22;4031;49.758;6.120;2022-11-20T15:02:46;6.50;99.90
7972;DHT22;4031;49.758;6.120;2022-11-20T15:05:14;6.40;99.90
7972;DHT22;4031;49.758;6.120;2022-11-20T15:07:43;6.30;99.90
7972;DHT22;4031;49.758;6.120;2022-11-20T15:10:22;6.30;99.90
7972;DHT22;4031;49.758;6.120;2022-11-20T15:12:54;6.30;99.90
7972;DHT22;4031;49.758;6.120;2022-11-20T15:15:50;6.20;99.90
7972;DHT22;4031;49.758;6.120;2022-11-20T15:18:22;6.20;99.90
7972;DHT22;4031;49.758;6.120;2022-11-20T15:20:49;6.20;99.90
7972;DHT22;4031;49.758;6.120;2022-11-20T15:23:17;6.20;99.90
7972;DHT22;4031;49.758;6.120;2022-11-20T15:25:44;6.10;99.90
7972;DHT22;4031;49.758;6.120;2022-11-20T15:28:31;6.10;99.90
7972;DHT22;4031;49.758;6.120;2022-11-20T15:30:59;6.10;99.90
7972;DHT22;4031;49.758;6.120;2022-11-20T15:33:25;6.10;99.90
7972;DHT22;4031;49.758;6.120;2022-11-20T15:35:51;6.10;99.90
7972;DHT22;4031;49.758;6.120;2022-11-20T15:38:17;6.00;99.90
7972;DHT22;4031;49.758;6.120;2022-11-20T15:40:43;6.00;99.90
7972;DHT22;4031;49.758;6.120;2022-11-20T15:43:08;6.00;99.90
7972;DHT22;4031;49.758;6.120;2022-11-20T15:45:38;6.00;99.90
7972;DHT22;4031;49.758;6.120;2022-11-20T15:48:39;6.00;99.90
7972;DHT22;4031;49.758;6.120;2022-11-20T15:53:39;5.90;99.90
7972;DHT22;4031;49.758;6.120;2022-11-20T15:56:12;5.90;99.90
7972;DHT22;4031;49.758;6.120;2022-11-20T15:58:38;5.90;99.90
7972;DHT22;4031;49.758;6.120;2022-11-20T16:01:04;5.90;99.90
7972;DHT22;4031;49.758;6.120;2022-11-20T16:03:30;5.90;99.90
7972;DHT22;4031;49.758;6.120;2022-11-20T16:05:56;5.90;99.90
7972;DHT22;4031;49.758;6.120;2022-11-20T16:08:22;5.80;99.90
7972;DHT22;4031;49.758;6.120;2022-11-20T16:10:47;5.80;99.90
7972;DHT22;4031;49.758;6.120;2022-11-20T16:13:15;5.80;99.90
7972;DHT22;4031;49.758;6.120;2022-11-20T16:16:04;5.80;99.90
7972;DHT22;4031;49.758;6.120;2022-11-20T16:18:33;5.80;99.90
7972;DHT22;4031;49.758;6.120;2022-11-20T16:20:59;5.80;99.90
7972;DHT22;4031;49.758;6.120;2022-11-20T16:23:25;5.70;99.90
7972;DHT22;4031;49.758;6.120;2022-11-20T16:25:51;5.70;99.90
7972;DHT22;4031;49.758;6.120;2022-11-20T16:28:17;5.80;99.90
7972;DHT22;4031;49.758;6.120;2022-11-20T16:30:43;5.80;99.90
7972;DHT22;4031;49.758;6.120;2022-11-20T16:33:15;5.80;99.90
7972;DHT22;4031;49.758;6.120;2022-11-20T16:35:42;5.80;99.90
7972;DHT22;4031;49.758;6.120;2022-11-20T16:38:08;5.80;99.90
7972;DHT22;4031;49.758;6.120;2022-11-20T16:40:34;5.80;99.90
7972;DHT22;4031;49.758;6.120;2022-11-20T16:43:12;5.80;99.90
7972;DHT22;4031;49.758;6.120;2022-11-20T16:45:43;5.90;99.90
7972;DHT22;4031;49.758;6.120;2022-11-20T16:48:15;5.90;99.90
7972;DHT22;4031;49.758;6.120;2022-11-20T16:50:45;5.90;99.90
7972;DHT22;4031;49.758;6.120;2022-11-20T16:53:16;5.90;99.90
7972;DHT22;4031;49.758;6.120;2022-11-20T16:55:42;5.90;99.90
7972;DHT22;4031;49.758;6.120;2022-11-20T16:58:08;5.90;99.90
7972;DHT22;4031;49.758;6.120;2022-11-20T17:00:40;5.90;99.90
7972;DHT22;4031;49.758;6.120;2022-11-20T17:03:06;6.00;99.90
7972;DHT22;4031;49.758;6.120;2022-11-20T17:05:33;6.00;99.90
7972;DHT22;4031;49.758;6.120;2022-11-20T17:08:00;6.10;99.90
7972;DHT22;4031;49.758;6.120;2022-11-20T17:10:26;6.10;99.90
7972;DHT22;4031;49.758;6.120;2022-11-20T17:12:52;6.00;99.90
7972;DHT22;4031;49.758;6.120;2022-11-20T17:15:18;6.00;99.90
7972;DHT22;4031;49.758;6.120;2022-11-20T17:17:43;6.10;99.90
7972;DHT22;4031;49.758;6.120;2022-11-20T17:20:10;6.10;99.90
7972;DHT22;4031;49.758;6.120;2022-11-20T17:22:37;6.10;99.90
7972;DHT22;4031;49.758;6.120;2022-11-20T17:25:03;6.10;99.90
7972;DHT22;4031;49.758;6.120;2022-11-20T17:27:29;6.10;99.90
7972;DHT22;4031;49.758;6.120;2022-11-20T17:29:54;6.10;99.90
7972;DHT22;4031;49.758;6.120;2022-11-20T17:32:22;6.10;99.90
7972;DHT22;4031;49.758;6.120;2022-11-20T17:34:47;6.10;99.90
7972;DHT22;4031;49.758;6.120;2022-11-20T17:37:13;6.20;99.90
7972;DHT22;4031;49.758;6.120;2022-11-20T17:39:39;6.10;99.90
7972;DHT22;4031;49.758;6.120;2022-11-20T17:42:05;6.10;99.90
7972;DHT22;4031;49.758;6.120;2022-11-20T17:44:49;6.10;99.90
7972;DHT22;4031;49.758;6.120;2022-11-20T17:47:14;6.10;99.90
7972;DHT22;4031;49.758;6.120;2022-11-20T17:49:40;6.00;99.90
7972;DHT22;4031;49.758;6.120;2022-11-20T17:52:06;6.10;99.90
7972;DHT22;4031;49.758;6.120;2022-11-20T17:54:32;6.00;99.90
7972;DHT22;4031;49.758;6.120;2022-11-20T17:56:57;6.00;99.90
7972;DHT22;4031;49.758;6.120;2022-11-20T17:59:42;6.00;99.90
7972;DHT22;4031;49.758;6.120;2022-11-20T18:02:09;6.00;99.90
7972;DHT22;4031;49.758;6.120;2022-11-20T18:04:37;5.90;99.90
7972;DHT22;4031;49.758;6.120;2022-11-20T18:07:03;5.80;99.90
7972;DHT22;4031;49.758;6.120;2022-11-20T18:09:29;5.80;99.90
7972;DHT22;4031;49.758;6.120;2022-11-20T18:11:55;5.80;99.90
7972;DHT22;4031;49.758;6.120;2022-11-20T18:14:20;5.70;99.90
7972;DHT22;4031;49.758;6.120;2022-11-20T18:17:08;5.60;99.90
7972;DHT22;4031;49.758;6.120;2022-11-20T18:19:38;5.70;99.90
7972;DHT22;4031;49.758;6.120;2022-11-20T18:22:04;5.70;99.90
7972;DHT22;4031;49.758;6.120;2022-11-20T18:24:32;5.80;99.90
7972;DHT22;4031;49.758;6.120;2022-11-20T18:27:00;5.80;99.90
7972;DHT22;4031;49.758;6.120;2022-11-20T18:29:27;5.80;99.90
7972;DHT22;4031;49.758;6.120;2022-11-20T18:31:53;5.80;99.90
7972;DHT22;4031;49.758;6.120;2022-11-20T18:34:19;5.80;99.90